Charter Quote
Worldwide +1-877-727-2538 Call
Select Language Lang
SAFETY RELIABILITY EXPERIENCE

Private Jet Charter Services - Chaoyang Airport (ZYCY)

Paramount Business Jets offers private jet charter flights and luxury airliner charters to and from Chaoyang Airport.

AIRPORT INFORMATION
ICAOZYCY
LOCATIONChaoyang, China
FACILITY TYPEAIRPORT

At Paramount Business Jets you can hire chartered private jets to and from Chaoyang Airport with as little as 4 hours of notice. All flights booked via Paramount Business Jets are operated by certified direct air carriers that meet and exceed the FAA part 135 and 121 protocol or a foreign equivalent safety authority. Furthermore, Paramount Business Jets subscribes to ARGUS for their third party safety checks of operators, aircraft, and crews prior each and every flight to and from Chaoyang Airport and worldwide.

  • Quote a trip using Chaoyang Airport or call us 24/7 - 365 days a year at +1-877-727-2538.
Questions? Call +1-877-727-2538

METAR Weather Data at Chaoyang Airport, ZYCY

STATIONZYCY
OBSERVEDThu Aug 14, 07:00 UTC
NOWMon Jul 22, 09:51 UTC
AGE43274:51 hr ago
WINDWSW at 4 mph
VISIBILITYgreater than 7 miles
CLOUDSclear skies
TEMP84°F (29°C)
DEWPT61°F (16°C)
HUMIDITY45%
HEAT INDEX84°F (29°C)
BAROMETER1006 hPa (29.71 in Hg)
METARZYCY 140700Z 25002MPS CAVOK 29/16 Q1006 NOSIG

Call us on +1-877-727-2538 (24 Hours) to Hire a Private Jet or Get a Quick Quote.

Find Airports Near any Location

Processing
...